SUR4101 MUCU-MDSD
Flight info
| Callsign | SUR4101 |
|---|---|
| Flight time | N/A |
| Altitude | 23000 |
| Route | LODMA DCT SAVAR DCT BENIS DCT DHG |
| Aircraft | DH8D/M-SDE2E3FGRY/H |
Departure
| Time | 2026-04-24 16:29 |
|---|---|
| Airport | Antonio Maceo International Airport (MUCU) |
Arrival
| Time | N/A |
|---|---|
| Airport | Las Américas International Airport (MDSD) |
| Time | Latitude | Longitude | Altitude | Speed | Heading |
|---|---|---|---|---|---|
| 2026-04-24 15:56 | 19.97169 | -75.84017 | 230 ft | 0 kts | 89° |
| 2026-04-24 16:15 | 19.97169 | -75.84013 | 230 ft | 2 kts | 89° |
| 2026-04-24 16:16 | 19.97147 | -75.84003 | 229 ft | 1 kts | 218° |
| 2026-04-24 16:16 | 19.97143 | -75.84007 | 229 ft | 1 kts | 227° |
| 2026-04-24 16:17 | 19.97142 | -75.84009 | 229 ft | 0 kts | 225° |
| 2026-04-24 16:21 | 19.97141 | -75.84009 | 229 ft | 0 kts | 225° |
| 2026-04-24 16:21 | 19.97123 | -75.84029 | 229 ft | 6 kts | 226° |
| 2026-04-24 16:22 | 19.97092 | -75.84063 | 229 ft | 6 kts | 227° |
| 2026-04-24 16:22 | 19.97026 | -75.84109 | 227 ft | 6 kts | 186° |
| 2026-04-24 16:22 | 19.96980 | -75.84129 | 225 ft | 7 kts | 246° |
| 2026-04-24 16:23 | 19.96980 | -75.84177 | 226 ft | 6 kts | 274° |
| 2026-04-24 16:23 | 19.96982 | -75.84243 | 227 ft | 12 kts | 269° |
| 2026-04-24 16:23 | 19.96981 | -75.84358 | 227 ft | 16 kts | 269° |
| 2026-04-24 16:24 | 19.96979 | -75.84570 | 229 ft | 13 kts | 270° |
| 2026-04-24 16:24 | 19.96978 | -75.84673 | 228 ft | 14 kts | 269° |
| 2026-04-24 16:24 | 19.96977 | -75.84776 | 227 ft | 13 kts | 269° |
| 2026-04-24 16:24 | 19.96976 | -75.84884 | 224 ft | 15 kts | 269° |
| 2026-04-24 16:25 | 19.96975 | -75.85004 | 220 ft | 17 kts | 270° |
| 2026-04-24 16:25 | 19.96975 | -75.85140 | 213 ft | 19 kts | 270° |
| 2026-04-24 16:25 | 19.96980 | -75.85292 | 204 ft | 20 kts | 276° |
| 2026-04-24 16:26 | 19.97004 | -75.85445 | 194 ft | 0 kts | 237° |
| 2026-04-24 16:26 | 19.97003 | -75.85446 | 194 ft | 1 kts | 235° |
| 2026-04-24 16:27 | 19.96981 | -75.85458 | 193 ft | 4 kts | 170° |
| 2026-04-24 16:27 | 19.96966 | -75.85445 | 194 ft | 1 kts | 125° |
| 2026-04-24 16:27 | 19.96964 | -75.85414 | 196 ft | 3 kts | 72° |
| 2026-04-24 16:27 | 19.96966 | -75.85408 | 196 ft | 1 kts | 73° |
| 2026-04-24 16:28 | 19.96971 | -75.85242 | 207 ft | 59 kts | 90° |
| 2026-04-24 16:28 | 19.96981 | -75.84490 | 229 ft | 139 kts | 89° |
| 2026-04-24 16:28 | 19.97006 | -75.81870 | 610 ft | 203 kts | 93° |
| 2026-04-24 16:29 | 19.96627 | -75.80551 | 1647 ft | 177 kts | 116° |
| 2026-04-24 16:29 | 19.96157 | -75.79374 | 2368 ft | 173 kts | 112° |
| 2026-04-24 16:29 | 19.95329 | -75.76999 | 3369 ft | 175 kts | 110° |
| 2026-04-24 16:30 | 19.94556 | -75.74566 | 4341 ft | 175 kts | 109° |
| 2026-04-24 16:30 | 19.94182 | -75.73330 | 4790 ft | 177 kts | 108° |
| 2026-04-24 16:30 | 19.93809 | -75.72069 | 5234 ft | 179 kts | 108° |
| 2026-04-24 16:31 | 19.93443 | -75.70811 | 5632 ft | 183 kts | 108° |
| 2026-04-24 16:31 | 19.93072 | -75.69518 | 6066 ft | 184 kts | 108° |
| 2026-04-24 16:31 | 19.92700 | -75.68211 | 6491 ft | 186 kts | 108° |
| 2026-04-24 16:31 | 19.92331 | -75.66908 | 6909 ft | 186 kts | 109° |
| 2026-04-24 16:32 | 19.92081 | -75.66019 | 7178 ft | 187 kts | 109° |
| 2026-04-24 16:32 | 19.91586 | -75.64257 | 7717 ft | 189 kts | 108° |
| 2026-04-24 16:32 | 19.91209 | -75.62911 | 8115 ft | 190 kts | 108° |
| 2026-04-24 16:32 | 19.90837 | -75.61578 | 8494 ft | 191 kts | 109° |
| 2026-04-24 16:33 | 19.90457 | -75.60217 | 8862 ft | 193 kts | 109° |
| 2026-04-24 16:33 | 19.90074 | -75.58844 | 9227 ft | 195 kts | 109° |
| 2026-04-24 16:33 | 19.89692 | -75.57472 | 9572 ft | 196 kts | 108° |
| 2026-04-24 16:33 | 19.89301 | -75.56069 | 9919 ft | 198 kts | 109° |
| 2026-04-24 16:34 | 19.88909 | -75.54665 | 10250 ft | 200 kts | 109° |
| 2026-04-24 16:34 | 19.88508 | -75.53228 | 10505 ft | 208 kts | 109° |
| 2026-04-24 16:34 | 19.88081 | -75.51708 | 10568 ft | 225 kts | 108° |
| 2026-04-24 16:34 | 19.87625 | -75.50070 | 10748 ft | 235 kts | 108° |
| 2026-04-24 16:35 | 19.87159 | -75.48392 | 11074 ft | 238 kts | 109° |
| 2026-04-24 16:35 | 19.86688 | -75.46693 | 11424 ft | 239 kts | 108° |
| 2026-04-24 16:35 | 19.86218 | -75.45003 | 11728 ft | 243 kts | 109° |
| 2026-04-24 16:35 | 19.85739 | -75.43281 | 12082 ft | 245 kts | 109° |
| 2026-04-24 16:36 | 19.85254 | -75.41543 | 12424 ft | 246 kts | 109° |
| 2026-04-24 16:36 | 19.84768 | -75.39802 | 12750 ft | 247 kts | 109° |
| 2026-04-24 16:36 | 19.84275 | -75.38034 | 13074 ft | 249 kts | 108° |
| 2026-04-24 16:36 | 19.83786 | -75.36285 | 13385 ft | 251 kts | 109° |
| 2026-04-24 16:37 | 19.83282 | -75.34486 | 13647 ft | 254 kts | 109° |
| 2026-04-24 16:37 | 19.82782 | -75.32700 | 13945 ft | 255 kts | 109° |
| 2026-04-24 16:37 | 19.82447 | -75.31503 | 14102 ft | 258 kts | 109° |
| 2026-04-24 16:37 | 19.81762 | -75.29059 | 14474 ft | 260 kts | 109° |
| 2026-04-24 16:38 | 19.81243 | -75.27208 | 14766 ft | 261 kts | 109° |
| 2026-04-24 16:38 | 19.80727 | -75.25368 | 15016 ft | 263 kts | 109° |
| 2026-04-24 16:38 | 19.80200 | -75.23493 | 15261 ft | 265 kts | 109° |
| 2026-04-24 16:38 | 19.79675 | -75.21626 | 15508 ft | 268 kts | 109° |
| 2026-04-24 16:39 | 19.79138 | -75.19715 | 15760 ft | 269 kts | 109° |
| 2026-04-24 16:39 | 19.78607 | -75.17822 | 16000 ft | 270 kts | 110° |
| 2026-04-24 16:39 | 19.78064 | -75.15894 | 16236 ft | 272 kts | 110° |
| 2026-04-24 16:39 | 19.77527 | -75.13984 | 16482 ft | 273 kts | 109° |
| 2026-04-24 16:40 | 19.76977 | -75.12032 | 16673 ft | 276 kts | 109° |
| 2026-04-24 16:40 | 19.76434 | -75.10104 | 16919 ft | 277 kts | 109° |
| 2026-04-24 16:40 | 19.75881 | -75.08140 | 17141 ft | 278 kts | 109° |
| 2026-04-24 16:40 | 19.75323 | -75.06161 | 17345 ft | 280 kts | 109° |
| 2026-04-24 16:41 | 19.74763 | -75.04173 | 17562 ft | 281 kts | 109° |
| 2026-04-24 16:41 | 19.74207 | -75.02205 | 17771 ft | 282 kts | 110° |
| 2026-04-24 16:41 | 19.73640 | -75.00194 | 17977 ft | 283 kts | 110° |
| 2026-04-24 16:41 | 19.73080 | -74.98213 | 18189 ft | 284 kts | 110° |
| 2026-04-24 16:42 | 19.72510 | -74.96197 | 18380 ft | 285 kts | 110° |
| 2026-04-24 16:42 | 19.71937 | -74.94169 | 18558 ft | 286 kts | 110° |
| 2026-04-24 16:42 | 19.71362 | -74.92139 | 18697 ft | 289 kts | 110° |
| 2026-04-24 16:42 | 19.70782 | -74.90089 | 18902 ft | 290 kts | 110° |
| 2026-04-24 16:43 | 19.70207 | -74.88057 | 19097 ft | 291 kts | 110° |
| 2026-04-24 16:43 | 19.69623 | -74.85995 | 19275 ft | 292 kts | 110° |
| 2026-04-24 16:43 | 19.69039 | -74.83934 | 19439 ft | 293 kts | 110° |
| 2026-04-24 16:43 | 19.68453 | -74.81866 | 19621 ft | 294 kts | 111° |
| 2026-04-24 16:44 | 19.67874 | -74.79826 | 19805 ft | 294 kts | 111° |
| 2026-04-24 16:44 | 19.67283 | -74.77744 | 19985 ft | 293 kts | 111° |
| 2026-04-24 16:44 | 19.66692 | -74.75661 | 20113 ft | 296 kts | 111° |
| 2026-04-24 16:44 | 19.66100 | -74.73579 | 20293 ft | 296 kts | 111° |
| 2026-04-24 16:45 | 19.65503 | -74.71480 | 20424 ft | 297 kts | 111° |
| 2026-04-24 16:45 | 19.64907 | -74.69381 | 20595 ft | 297 kts | 111° |
| 2026-04-24 16:45 | 19.64311 | -74.67285 | 20754 ft | 296 kts | 111° |
| 2026-04-24 16:45 | 19.63714 | -74.65191 | 20823 ft | 300 kts | 111° |
| 2026-04-24 16:46 | 19.63114 | -74.63082 | 20983 ft | 301 kts | 111° |
| 2026-04-24 16:46 | 19.62508 | -74.60957 | 21144 ft | 299 kts | 111° |
| 2026-04-24 16:46 | 19.61906 | -74.58845 | 21221 ft | 302 kts | 111° |
| 2026-04-24 16:46 | 19.61298 | -74.56712 | 21368 ft | 301 kts | 111° |
| 2026-04-24 16:47 | 19.60683 | -74.54559 | 21452 ft | 304 kts | 112° |
| 2026-04-24 16:47 | 19.60078 | -74.52438 | 21586 ft | 304 kts | 112° |
| 2026-04-24 16:47 | 19.59462 | -74.50282 | 21694 ft | 305 kts | 111° |
| 2026-04-24 16:47 | 19.58846 | -74.48126 | 21799 ft | 306 kts | 112° |
| 2026-04-24 16:48 | 19.58229 | -74.45967 | 21908 ft | 307 kts | 112° |
| 2026-04-24 16:48 | 19.57616 | -74.43824 | 22049 ft | 306 kts | 112° |
| 2026-04-24 16:48 | 19.56994 | -74.41653 | 22140 ft | 307 kts | 112° |
| 2026-04-24 16:48 | 19.56371 | -74.39478 | 22210 ft | 309 kts | 112° |
| 2026-04-24 16:49 | 19.55751 | -74.37311 | 22348 ft | 309 kts | 112° |
| 2026-04-24 16:49 | 19.55126 | -74.35131 | 22456 ft | 309 kts | 112° |
| 2026-04-24 16:49 | 19.54498 | -74.32940 | 22519 ft | 311 kts | 112° |
| 2026-04-24 16:49 | 19.53873 | -74.30760 | 22636 ft | 310 kts | 112° |
| 2026-04-24 16:50 | 19.53458 | -74.29318 | 22671 ft | 311 kts | 112° |
| 2026-04-24 16:50 | 19.52618 | -74.26392 | 22773 ft | 312 kts | 112° |
| 2026-04-24 16:50 | 19.51983 | -74.24183 | 22872 ft | 312 kts | 112° |
| 2026-04-24 16:50 | 19.51358 | -74.22009 | 22943 ft | 313 kts | 113° |
| 2026-04-24 16:51 | 19.50719 | -74.19791 | 22962 ft | 315 kts | 112° |
| 2026-04-24 16:51 | 19.50079 | -74.17570 | 22965 ft | 319 kts | 113° |
| 2026-04-24 16:51 | 19.49426 | -74.15305 | 22969 ft | 322 kts | 112° |
| 2026-04-24 16:51 | 19.48763 | -74.13005 | 22968 ft | 326 kts | 112° |
| 2026-04-24 16:52 | 19.48104 | -74.10721 | 22967 ft | 330 kts | 112° |
| 2026-04-24 16:52 | 19.47426 | -74.08372 | 22969 ft | 333 kts | 112° |
| 2026-04-24 16:52 | 19.46744 | -74.06009 | 22969 ft | 336 kts | 112° |
| 2026-04-24 16:52 | 19.46063 | -74.03651 | 22967 ft | 339 kts | 112° |
| 2026-04-24 16:53 | 19.45367 | -74.01241 | 22968 ft | 342 kts | 112° |
| 2026-04-24 16:53 | 19.44672 | -73.98837 | 22965 ft | 345 kts | 112° |
| 2026-04-24 16:53 | 19.43963 | -73.96387 | 22963 ft | 348 kts | 112° |
| 2026-04-24 16:53 | 19.43248 | -73.93913 | 22962 ft | 351 kts | 112° |
| 2026-04-24 16:54 | 19.42539 | -73.91463 | 22955 ft | 353 kts | 112° |
| 2026-04-24 16:54 | 19.41814 | -73.88959 | 22957 ft | 355 kts | 112° |
| 2026-04-24 16:54 | 19.41334 | -73.87304 | 22950 ft | 356 kts | 112° |
| 2026-04-24 16:54 | 19.40852 | -73.85637 | 22952 ft | 357 kts | 112° |
| 2026-04-24 16:55 | 19.39627 | -73.81414 | 22949 ft | 359 kts | 112° |
| 2026-04-24 16:55 | 19.38362 | -73.77056 | 22949 ft | 361 kts | 112° |
| 2026-04-24 16:55 | 19.37631 | -73.74538 | 22946 ft | 362 kts | 112° |
| 2026-04-24 16:56 | 19.36886 | -73.71975 | 22946 ft | 362 kts | 112° |
| 2026-04-24 16:56 | 19.36149 | -73.69440 | 22948 ft | 363 kts | 112° |
| 2026-04-24 16:56 | 19.35400 | -73.66869 | 22951 ft | 363 kts | 111° |
| 2026-04-24 16:56 | 19.34662 | -73.64332 | 22951 ft | 364 kts | 112° |
| 2026-04-24 16:57 | 19.33916 | -73.61771 | 22948 ft | 364 kts | 112° |
| 2026-04-24 16:57 | 19.33166 | -73.59200 | 22951 ft | 364 kts | 112° |
| 2026-04-24 16:57 | 19.32428 | -73.56668 | 22951 ft | 364 kts | 112° |
| 2026-04-24 16:57 | 19.31675 | -73.54090 | 22948 ft | 365 kts | 112° |
| 2026-04-24 16:58 | 19.30924 | -73.51518 | 22949 ft | 365 kts | 111° |
| 2026-04-24 16:58 | 19.30251 | -73.48943 | 22949 ft | 367 kts | 109° |
| 2026-04-24 16:58 | 19.29637 | -73.46304 | 22947 ft | 367 kts | 108° |
| 2026-04-24 16:58 | 19.29030 | -73.43697 | 22948 ft | 367 kts | 108° |
| 2026-04-24 16:59 | 19.28419 | -73.41087 | 22948 ft | 367 kts | 108° |
| 2026-04-24 16:59 | 19.27800 | -73.38452 | 22948 ft | 367 kts | 108° |
| 2026-04-24 16:59 | 19.26564 | -73.33230 | 22943 ft | 367 kts | 109° |
| 2026-04-24 17:00 | 19.25940 | -73.30601 | 22943 ft | 367 kts | 109° |
| 2026-04-24 17:00 | 19.24700 | -73.25397 | 22947 ft | 366 kts | 109° |
| 2026-04-24 17:00 | 19.24079 | -73.22797 | 22946 ft | 366 kts | 109° |
| 2026-04-24 17:01 | 19.22832 | -73.17585 | 22945 ft | 366 kts | 109° |
| 2026-04-24 17:01 | 19.22204 | -73.14962 | 22946 ft | 366 kts | 109° |
| 2026-04-24 17:02 | 19.20957 | -73.09766 | 22949 ft | 365 kts | 109° |
| 2026-04-24 17:02 | 19.20337 | -73.07183 | 22947 ft | 365 kts | 109° |
| 2026-04-24 17:02 | 19.19708 | -73.04566 | 22945 ft | 365 kts | 109° |
| 2026-04-24 17:02 | 19.19087 | -73.01988 | 22945 ft | 365 kts | 109° |
| 2026-04-24 17:03 | 19.17828 | -72.96759 | 22945 ft | 365 kts | 108° |
| 2026-04-24 17:03 | 19.17209 | -72.94190 | 22944 ft | 365 kts | 109° |
| 2026-04-24 17:03 | 19.16579 | -72.91579 | 22943 ft | 365 kts | 109° |
| 2026-04-24 17:04 | 19.15957 | -72.89003 | 22945 ft | 364 kts | 109° |
| 2026-04-24 17:04 | 19.14700 | -72.83800 | 22941 ft | 364 kts | 109° |
| 2026-04-24 17:04 | 19.14072 | -72.81202 | 22937 ft | 364 kts | 109° |
| 2026-04-24 17:05 | 19.13453 | -72.78648 | 22938 ft | 364 kts | 109° |
| 2026-04-24 17:05 | 19.12825 | -72.76051 | 22940 ft | 364 kts | 109° |
| 2026-04-24 17:05 | 19.11573 | -72.70886 | 22945 ft | 364 kts | 109° |
| 2026-04-24 17:06 | 19.10941 | -72.68285 | 22952 ft | 363 kts | 109° |
| 2026-04-24 17:06 | 19.09688 | -72.63124 | 22964 ft | 363 kts | 109° |
| 2026-04-24 17:06 | 19.09060 | -72.60543 | 22967 ft | 363 kts | 109° |
| 2026-04-24 17:07 | 19.08407 | -72.57964 | 22972 ft | 362 kts | 110° |
| 2026-04-24 17:07 | 19.07712 | -72.55399 | 22976 ft | 362 kts | 110° |
| 2026-04-24 17:07 | 19.06322 | -72.50292 | 22995 ft | 362 kts | 110° |
| 2026-04-24 17:08 | 19.04946 | -72.45227 | 23006 ft | 361 kts | 110° |
| 2026-04-24 17:08 | 19.04249 | -72.42659 | 23011 ft | 361 kts | 110° |
| 2026-04-24 17:08 | 19.03556 | -72.40102 | 23018 ft | 360 kts | 110° |
| 2026-04-24 17:09 | 19.02180 | -72.35026 | 23018 ft | 360 kts | 110° |
| 2026-04-24 17:09 | 19.00812 | -72.29985 | 23026 ft | 358 kts | 111° |
| 2026-04-24 17:10 | 19.00122 | -72.27440 | 23031 ft | 358 kts | 111° |
| 2026-04-24 17:10 | 18.98064 | -72.19868 | 23023 ft | 357 kts | 111° |
| 2026-04-24 17:11 | 18.96018 | -72.12353 | 23009 ft | 357 kts | 110° |
| 2026-04-24 17:12 | 18.92599 | -71.99816 | 22982 ft | 355 kts | 111° |
| 2026-04-24 18:54 | -34.56256 | -58.41288 | 37 ft | 0 kts | 213° |
| 2026-04-24 19:11 | -34.56257 | -58.41289 | 37 ft | 0 kts | 213° |
| 2026-04-24 19:12 | -34.56270 | -58.41299 | 38 ft | 3 kts | 213° |
| 2026-04-24 19:12 | -34.56279 | -58.41321 | 38 ft | 3 kts | 269° |
| 2026-04-24 19:12 | -34.56268 | -58.41346 | 38 ft | 5 kts | 306° |
| 2026-04-24 19:13 | -34.56250 | -58.41378 | 38 ft | 6 kts | 303° |
| 2026-04-24 19:13 | -34.56236 | -58.41405 | 38 ft | 0 kts | 303° |
| 2026-04-24 19:18 | -34.56234 | -58.41408 | 38 ft | 1 kts | 303° |
| 2026-04-24 19:18 | -34.56228 | -58.41419 | 37 ft | 2 kts | 303° |
| 2026-04-24 19:19 | -34.56217 | -58.41438 | 37 ft | 3 kts | 304° |
| 2026-04-24 19:19 | -34.56202 | -58.41465 | 37 ft | 4 kts | 310° |
| 2026-04-24 19:19 | -34.56171 | -58.41480 | 36 ft | 5 kts | 9° |
| 2026-04-24 19:19 | -34.56138 | -58.41460 | 36 ft | 5 kts | 34° |
| 2026-04-24 19:20 | -34.56109 | -58.41434 | 35 ft | 5 kts | 35° |
| 2026-04-24 19:20 | -34.56080 | -58.41410 | 35 ft | 4 kts | 34° |
| 2026-04-24 19:20 | -34.56051 | -58.41386 | 34 ft | 4 kts | 33° |
| 2026-04-24 19:20 | -34.56023 | -58.41363 | 33 ft | 4 kts | 34° |
| 2026-04-24 19:21 | -34.55994 | -58.41340 | 33 ft | 5 kts | 33° |
| 2026-04-24 19:21 | -34.55965 | -58.41316 | 32 ft | 4 kts | 32° |
| 2026-04-24 19:21 | -34.55933 | -58.41305 | 32 ft | 4 kts | 348° |
| 2026-04-24 19:21 | -34.55908 | -58.41336 | 31 ft | 5 kts | 301° |
| 2026-04-24 19:22 | -34.55896 | -58.41364 | 31 ft | 5 kts | 297° |
| 2026-04-24 19:22 | -34.55870 | -58.41425 | 31 ft | 6 kts | 296° |
| 2026-04-24 19:22 | -34.55850 | -58.41473 | 30 ft | 6 kts | 296° |
| 2026-04-24 19:22 | -34.55829 | -58.41524 | 30 ft | 6 kts | 296° |
| 2026-04-24 19:23 | -34.55807 | -58.41576 | 29 ft | 6 kts | 296° |
| 2026-04-24 19:23 | -34.55784 | -58.41630 | 29 ft | 8 kts | 297° |
| 2026-04-24 19:23 | -34.55757 | -58.41694 | 28 ft | 8 kts | 297° |
| 2026-04-24 19:23 | -34.55730 | -58.41757 | 28 ft | 8 kts | 300° |
| 2026-04-24 19:24 | -34.55691 | -58.41830 | 27 ft | 12 kts | 304° |
| 2026-04-24 19:24 | -34.55638 | -58.41926 | 27 ft | 14 kts | 303° |
| 2026-04-24 19:24 | -34.55577 | -58.42034 | 27 ft | 15 kts | 306° |
| 2026-04-24 19:24 | -34.55518 | -58.42129 | 27 ft | 13 kts | 307° |
| 2026-04-24 19:25 | -34.55464 | -58.42215 | 28 ft | 12 kts | 307° |
| 2026-04-24 19:25 | -34.55415 | -58.42291 | 28 ft | 10 kts | 307° |
| 2026-04-24 19:25 | -34.55374 | -58.42360 | 28 ft | 6 kts | 299° |
| 2026-04-24 19:25 | -34.55373 | -58.42362 | 28 ft | 0 kts | 299° |
| 2026-04-24 19:26 | -34.55371 | -58.42369 | 28 ft | 3 kts | 295° |
| 2026-04-24 19:27 | -34.55358 | -58.42430 | 29 ft | 8 kts | 279° |
| 2026-04-24 19:27 | -34.55367 | -58.42490 | 30 ft | 6 kts | 226° |
| 2026-04-24 19:27 | -34.55408 | -58.42496 | 30 ft | 6 kts | 144° |
| 2026-04-24 19:27 | -34.55417 | -58.42482 | 30 ft | 0 kts | 123° |
| 2026-04-24 19:28 | -34.55454 | -58.42416 | 30 ft | 42 kts | 124° |
| 2026-04-24 19:28 | -34.55808 | -58.41783 | 28 ft | 132 kts | 121° |
| 2026-04-24 19:28 | -34.56420 | -58.40688 | 163 ft | 173 kts | 120° |
| 2026-04-24 19:28 | -34.57084 | -58.39407 | 791 ft | 178 kts | 122° |
| 2026-04-24 19:29 | -34.57723 | -58.36843 | 2178 ft | 167 kts | 67° |
| 2026-04-24 19:29 | -34.57246 | -58.35556 | 2692 ft | 167 kts | 62° |
| 2026-04-24 19:29 | -34.56752 | -58.34292 | 3200 ft | 169 kts | 62° |
| 2026-04-24 19:30 | -34.56247 | -58.32991 | 3723 ft | 171 kts | 62° |
| 2026-04-24 19:30 | -34.55748 | -58.31692 | 4212 ft | 174 kts | 62° |
| 2026-04-24 19:30 | -34.55232 | -58.30361 | 4725 ft | 176 kts | 60° |
| 2026-04-24 19:30 | -34.54517 | -58.29204 | 5205 ft | 175 kts | 38° |
| 2026-04-24 19:31 | -34.53473 | -58.28489 | 5690 ft | 173 kts | 14° |
| 2026-04-24 19:31 | -34.52292 | -58.28359 | 6160 ft | 173 kts | 351° |
| 2026-04-24 19:31 | -34.51157 | -58.28833 | 6643 ft | 174 kts | 328° |
| 2026-04-24 19:31 | -34.50273 | -58.29832 | 7111 ft | 176 kts | 306° |
| 2026-04-24 19:32 | -34.49784 | -58.31171 | 7591 ft | 178 kts | 283° |
| 2026-04-24 19:32 | -34.49898 | -58.32685 | 8014 ft | 185 kts | 255° |
| 2026-04-24 19:32 | -34.50359 | -58.34119 | 8506 ft | 186 kts | 251° |
| 2026-04-24 19:32 | -34.50865 | -58.35572 | 8989 ft | 187 kts | 250° |
| 2026-04-24 19:33 | -34.51385 | -58.37002 | 9440 ft | 188 kts | 250° |
| 2026-04-24 19:33 | -34.51921 | -58.38430 | 9887 ft | 188 kts | 249° |
| 2026-04-24 19:33 | -34.52478 | -58.39885 | 10329 ft | 189 kts | 249° |
| 2026-04-24 19:33 | -34.53036 | -58.41317 | 10773 ft | 190 kts | 248° |
| 2026-04-24 19:34 | -34.53622 | -58.42811 | 10982 ft | 206 kts | 248° |
| 2026-04-24 19:34 | -34.54254 | -58.44410 | 11225 ft | 216 kts | 247° |
| 2026-04-24 19:34 | -34.54915 | -58.46055 | 11608 ft | 220 kts | 246° |
| 2026-04-24 19:34 | -34.55593 | -58.47735 | 12052 ft | 221 kts | 246° |
| 2026-04-24 19:35 | -34.56262 | -58.49390 | 12459 ft | 222 kts | 246° |
| 2026-04-24 19:35 | -34.56942 | -58.51070 | 12869 ft | 224 kts | 246° |
| 2026-04-24 19:35 | -34.57628 | -58.52766 | 13285 ft | 224 kts | 246° |
| 2026-04-24 19:35 | -34.58312 | -58.54457 | 13686 ft | 225 kts | 246° |
| 2026-04-24 19:36 | -34.59007 | -58.56174 | 14066 ft | 225 kts | 246° |
| 2026-04-24 19:36 | -34.59693 | -58.57870 | 14433 ft | 227 kts | 246° |
| 2026-04-24 19:36 | -34.60386 | -58.59584 | 14814 ft | 227 kts | 247° |
| 2026-04-24 19:36 | -34.61077 | -58.61295 | 15178 ft | 227 kts | 247° |
| 2026-04-24 19:37 | -34.61780 | -58.63011 | 15509 ft | 229 kts | 246° |
| 2026-04-24 19:37 | -34.62505 | -58.64750 | 15866 ft | 229 kts | 246° |
| 2026-04-24 19:37 | -34.63222 | -58.66472 | 16182 ft | 230 kts | 247° |
| 2026-04-24 19:37 | -34.63943 | -58.68204 | 16504 ft | 231 kts | 247° |
| 2026-04-24 19:38 | -34.64661 | -58.69931 | 16840 ft | 231 kts | 247° |
| 2026-04-24 19:38 | -34.65393 | -58.71692 | 17157 ft | 232 kts | 248° |
| 2026-04-24 19:38 | -34.66112 | -58.73428 | 17444 ft | 233 kts | 248° |
| 2026-04-24 19:38 | -34.66845 | -58.75196 | 17755 ft | 233 kts | 248° |
| 2026-04-24 19:39 | -34.67571 | -58.76947 | 18045 ft | 234 kts | 248° |
| 2026-04-24 19:39 | -34.68307 | -58.78725 | 18328 ft | 235 kts | 248° |
| 2026-04-24 19:39 | -34.69033 | -58.80481 | 18600 ft | 236 kts | 248° |
| 2026-04-24 19:39 | -34.69768 | -58.82259 | 18900 ft | 235 kts | 248° |
| 2026-04-24 19:40 | -34.70495 | -58.84019 | 19156 ft | 236 kts | 248° |
| 2026-04-24 19:40 | -34.71230 | -58.85801 | 19389 ft | 237 kts | 248° |
| 2026-04-24 19:40 | -34.71968 | -58.87588 | 19681 ft | 236 kts | 248° |
| 2026-04-24 19:40 | -34.72708 | -58.89382 | 19909 ft | 238 kts | 248° |
| 2026-04-24 19:41 | -34.73458 | -58.91207 | 20004 ft | 245 kts | 248° |
| 2026-04-24 19:41 | -34.74234 | -58.93099 | 20032 ft | 254 kts | 248° |
| 2026-04-24 19:41 | -34.75032 | -58.95044 | 20063 ft | 264 kts | 248° |
| 2026-04-24 19:41 | -34.75874 | -58.97092 | 20052 ft | 274 kts | 248° |
| 2026-04-24 19:42 | -34.76730 | -58.99177 | 20041 ft | 282 kts | 247° |
| 2026-04-24 19:42 | -34.77627 | -59.01359 | 20031 ft | 289 kts | 247° |
| 2026-04-24 19:42 | -34.78524 | -59.03542 | 20025 ft | 295 kts | 247° |
| 2026-04-24 19:42 | -34.79448 | -59.05792 | 20018 ft | 299 kts | 247° |
| 2026-04-24 19:43 | -34.80389 | -59.08087 | 20015 ft | 304 kts | 247° |
| 2026-04-24 19:43 | -34.81326 | -59.10372 | 20018 ft | 307 kts | 247° |
| 2026-04-24 19:43 | -34.82285 | -59.12715 | 20014 ft | 311 kts | 247° |
| 2026-04-24 19:43 | -34.83257 | -59.15087 | 20013 ft | 313 kts | 247° |
| 2026-04-24 19:44 | -34.84233 | -59.17475 | 20014 ft | 316 kts | 247° |
| 2026-04-24 19:44 | -34.85202 | -59.19844 | 20012 ft | 318 kts | 247° |
| 2026-04-24 19:44 | -34.86189 | -59.22262 | 20013 ft | 320 kts | 247° |
| 2026-04-24 19:44 | -34.87180 | -59.24690 | 20010 ft | 321 kts | 247° |
| 2026-04-24 19:45 | -34.88176 | -59.27133 | 20008 ft | 321 kts | 247° |
| 2026-04-24 19:45 | -34.89156 | -59.29529 | 20002 ft | 310 kts | 247° |
| 2026-04-24 19:45 | -34.90109 | -59.31855 | 20003 ft | 302 kts | 247° |
| 2026-04-24 19:45 | -34.91024 | -59.34095 | 20001 ft | 295 kts | 247° |
| 2026-04-24 19:46 | -34.91933 | -59.36330 | 20010 ft | 292 kts | 247° |
| 2026-04-24 19:46 | -34.92823 | -59.38520 | 20012 ft | 290 kts | 247° |
| 2026-04-24 19:46 | -34.93715 | -59.40718 | 20008 ft | 288 kts | 247° |
| 2026-04-24 19:46 | -34.94601 | -59.42904 | 20011 ft | 287 kts | 247° |
| 2026-04-24 19:47 | -34.95478 | -59.45070 | 20010 ft | 285 kts | 247° |
| 2026-04-24 19:47 | -34.96357 | -59.47239 | 20008 ft | 284 kts | 247° |
| 2026-04-24 19:47 | -34.97229 | -59.49394 | 20009 ft | 283 kts | 247° |
| 2026-04-24 19:47 | -34.98100 | -59.51548 | 20007 ft | 282 kts | 247° |
| 2026-04-24 19:48 | -34.98963 | -59.53684 | 20010 ft | 281 kts | 247° |
| 2026-04-24 19:48 | -34.99816 | -59.55796 | 20009 ft | 281 kts | 247° |
| 2026-04-24 19:48 | -35.01536 | -59.60058 | 20010 ft | 280 kts | 247° |
| 2026-04-24 19:49 | -35.02942 | -59.64435 | 20016 ft | 277 kts | 259° |
| 2026-04-24 19:49 | -35.03767 | -59.69159 | 20020 ft | 293 kts | 261° |
| 2026-04-24 19:50 | -35.05084 | -59.76661 | 20014 ft | 309 kts | 260° |
| 2026-04-24 19:50 | -35.05542 | -59.79244 | 20018 ft | 313 kts | 260° |
| 2026-04-24 19:51 | -35.06462 | -59.84436 | 20012 ft | 317 kts | 260° |
| 2026-04-24 19:51 | -35.06932 | -59.87085 | 20013 ft | 319 kts | 260° |
| 2026-04-24 19:52 | -35.07875 | -59.92400 | 20011 ft | 321 kts | 260° |
| 2026-04-24 19:52 | -35.08348 | -59.95071 | 20010 ft | 322 kts | 260° |
| 2026-04-24 19:52 | -35.08821 | -59.97744 | 20013 ft | 323 kts | 260° |
| 2026-04-24 19:52 | -35.09290 | -60.00394 | 20014 ft | 323 kts | 260° |
| 2026-04-24 19:53 | -35.09764 | -60.03083 | 20012 ft | 324 kts | 260° |
| 2026-04-24 19:53 | -35.10238 | -60.05773 | 20010 ft | 324 kts | 260° |
| 2026-04-24 19:53 | -35.11179 | -60.11120 | 20011 ft | 324 kts | 260° |
| 2026-04-24 19:54 | -35.11650 | -60.13808 | 20007 ft | 324 kts | 260° |
| 2026-04-24 19:54 | -35.12120 | -60.16483 | 20010 ft | 324 kts | 260° |
| 2026-04-24 19:54 | -35.12592 | -60.19179 | 20009 ft | 323 kts | 260° |
| 2026-04-24 19:54 | -35.13060 | -60.21860 | 20011 ft | 323 kts | 260° |
| 2026-04-24 19:55 | -35.13370 | -60.23636 | 20012 ft | 323 kts | 260° |
| 2026-04-24 19:55 | -35.13998 | -60.27236 | 20010 ft | 323 kts | 260° |
| 2026-04-24 19:55 | -35.14460 | -60.29890 | 20011 ft | 323 kts | 260° |
| 2026-04-24 19:55 | -35.14927 | -60.32573 | 20011 ft | 323 kts | 260° |
| 2026-04-24 19:56 | -35.15393 | -60.35260 | 20009 ft | 323 kts | 260° |
| 2026-04-24 19:56 | -35.15854 | -60.37916 | 20008 ft | 323 kts | 260° |
| 2026-04-24 19:56 | -35.16320 | -60.40604 | 20011 ft | 322 kts | 260° |
| 2026-04-24 19:56 | -35.16786 | -60.43296 | 20012 ft | 322 kts | 260° |
| 2026-04-24 19:57 | -35.17243 | -60.45941 | 20012 ft | 323 kts | 260° |
| 2026-04-24 19:57 | -35.17706 | -60.48619 | 20014 ft | 322 kts | 260° |
| 2026-04-24 19:57 | -35.18172 | -60.51328 | 20007 ft | 322 kts | 260° |
| 2026-04-24 19:57 | -35.18630 | -60.53984 | 20007 ft | 322 kts | 260° |
| 2026-04-24 19:58 | -35.19089 | -60.56661 | 20011 ft | 322 kts | 260° |
| 2026-04-24 19:58 | -35.19548 | -60.59333 | 20013 ft | 322 kts | 260° |
| 2026-04-24 19:58 | -35.20007 | -60.62014 | 20010 ft | 322 kts | 260° |
| 2026-04-24 19:58 | -35.20466 | -60.64695 | 20011 ft | 322 kts | 260° |
| 2026-04-24 19:59 | -35.20919 | -60.67341 | 20011 ft | 322 kts | 261° |
| 2026-04-24 19:59 | -35.21376 | -60.70020 | 20012 ft | 322 kts | 261° |
| 2026-04-24 19:59 | -35.21834 | -60.72710 | 20012 ft | 322 kts | 261° |
| 2026-04-24 19:59 | -35.22288 | -60.75375 | 20010 ft | 322 kts | 261° |
| 2026-04-24 20:00 | -35.22742 | -60.78045 | 20012 ft | 322 kts | 261° |
| 2026-04-24 20:00 | -35.23197 | -60.80727 | 20013 ft | 322 kts | 261° |
| 2026-04-24 20:00 | -35.23651 | -60.83406 | 20014 ft | 322 kts | 261° |
| 2026-04-24 20:00 | -35.24105 | -60.86089 | 20013 ft | 322 kts | 261° |
| 2026-04-24 20:01 | -35.24559 | -60.88777 | 20010 ft | 322 kts | 261° |
| 2026-04-24 20:01 | -35.25011 | -60.91453 | 20017 ft | 322 kts | 261° |
| 2026-04-24 20:01 | -35.25463 | -60.94135 | 20012 ft | 322 kts | 261° |
| 2026-04-24 20:01 | -35.25908 | -60.96783 | 20011 ft | 322 kts | 261° |
| 2026-04-24 20:02 | -35.26211 | -60.98583 | 20016 ft | 322 kts | 261° |
| 2026-04-24 20:02 | -35.26808 | -61.02146 | 20008 ft | 322 kts | 261° |
| 2026-04-24 20:02 | -35.27257 | -61.04820 | 20010 ft | 321 kts | 261° |
| 2026-04-24 20:02 | -35.27703 | -61.07489 | 20009 ft | 321 kts | 261° |
| 2026-04-24 20:03 | -35.28151 | -61.10167 | 20014 ft | 321 kts | 261° |
| 2026-04-24 20:03 | -35.28598 | -61.12846 | 20016 ft | 321 kts | 261° |
| 2026-04-24 20:03 | -35.29044 | -61.15524 | 20012 ft | 321 kts | 261° |
| 2026-04-24 20:03 | -35.29486 | -61.18182 | 20010 ft | 321 kts | 261° |
| 2026-04-24 20:04 | -35.29931 | -61.20860 | 20009 ft | 321 kts | 261° |
| 2026-04-24 20:04 | -35.30376 | -61.23543 | 20008 ft | 321 kts | 261° |
| 2026-04-24 20:04 | -35.30820 | -61.26221 | 20011 ft | 321 kts | 261° |
| 2026-04-24 20:04 | -35.31262 | -61.28896 | 20008 ft | 321 kts | 261° |
| 2026-04-24 20:05 | -35.31698 | -61.31536 | 20006 ft | 321 kts | 261° |
| 2026-04-24 20:05 | -35.32138 | -61.34205 | 20007 ft | 320 kts | 261° |
| 2026-04-24 20:05 | -35.32579 | -61.36878 | 20006 ft | 320 kts | 261° |
| 2026-04-24 20:05 | -35.33017 | -61.39545 | 20003 ft | 320 kts | 261° |
| 2026-04-24 20:06 | -35.33456 | -61.42216 | 19999 ft | 320 kts | 261° |
| 2026-04-24 20:06 | -35.33895 | -61.44893 | 19997 ft | 320 kts | 261° |
| 2026-04-24 20:06 | -35.34333 | -61.47567 | 19996 ft | 320 kts | 261° |
| 2026-04-24 20:06 | -35.34769 | -61.50233 | 19996 ft | 320 kts | 261° |
| 2026-04-24 20:07 | -35.35057 | -61.51998 | 19995 ft | 320 kts | 261° |
| 2026-04-24 20:07 | -35.35636 | -61.55547 | 19996 ft | 320 kts | 261° |
| 2026-04-24 20:07 | -35.36071 | -61.58220 | 19993 ft | 320 kts | 261° |
| 2026-04-24 20:07 | -35.36506 | -61.60894 | 19995 ft | 320 kts | 261° |
| 2026-04-24 20:08 | -35.36939 | -61.63566 | 19997 ft | 320 kts | 261° |
| 2026-04-24 20:08 | -35.37368 | -61.66209 | 19995 ft | 319 kts | 261° |
| 2026-04-24 20:08 | -35.37801 | -61.68886 | 19993 ft | 320 kts | 261° |
| 2026-04-24 20:08 | -35.38232 | -61.71553 | 19994 ft | 320 kts | 262° |
| 2026-04-24 20:09 | -35.38712 | -61.74216 | 19984 ft | 321 kts | 256° |
| 2026-04-24 20:09 | -35.39623 | -61.76717 | 20011 ft | 324 kts | 246° |
| 2026-04-24 20:09 | -35.40675 | -61.79149 | 20005 ft | 324 kts | 246° |
| 2026-04-24 20:09 | -35.41735 | -61.81594 | 19996 ft | 324 kts | 245° |
| 2026-04-24 20:10 | -35.42780 | -61.84007 | 19993 ft | 324 kts | 246° |
| 2026-04-24 20:10 | -35.43831 | -61.86443 | 19992 ft | 324 kts | 246° |
| 2026-04-24 20:10 | -35.44879 | -61.88879 | 19993 ft | 324 kts | 246° |
| 2026-04-24 20:10 | -35.45929 | -61.91324 | 19989 ft | 324 kts | 246° |
| 2026-04-24 20:11 | -35.46978 | -61.93774 | 19992 ft | 324 kts | 246° |
| 2026-04-24 20:11 | -35.48026 | -61.96224 | 19991 ft | 325 kts | 246° |
| 2026-04-24 20:11 | -35.49075 | -61.98680 | 19994 ft | 325 kts | 246° |
| 2026-04-24 20:11 | -35.50120 | -62.01131 | 19993 ft | 325 kts | 246° |
| 2026-04-24 20:12 | -35.51167 | -62.03589 | 19992 ft | 325 kts | 246° |
| 2026-04-24 20:12 | -35.52213 | -62.06045 | 19993 ft | 324 kts | 246° |
| 2026-04-24 20:12 | -35.53255 | -62.08496 | 19991 ft | 324 kts | 246° |
| 2026-04-24 20:12 | -35.54284 | -62.10918 | 19993 ft | 324 kts | 246° |
| 2026-04-24 20:13 | -35.55331 | -62.13385 | 19994 ft | 324 kts | 246° |
| 2026-04-24 20:13 | -35.56361 | -62.15812 | 19994 ft | 324 kts | 246° |
| 2026-04-24 20:13 | -35.57398 | -62.18259 | 19992 ft | 324 kts | 246° |
| 2026-04-24 20:13 | -35.58440 | -62.20720 | 19989 ft | 323 kts | 246° |
| 2026-04-24 20:14 | -35.59477 | -62.23170 | 19990 ft | 323 kts | 246° |
| 2026-04-24 20:14 | -35.60513 | -62.25619 | 19991 ft | 323 kts | 246° |
| 2026-04-24 20:14 | -35.61547 | -62.28067 | 19994 ft | 323 kts | 246° |
| 2026-04-24 20:14 | -35.62582 | -62.30521 | 19990 ft | 323 kts | 246° |
| 2026-04-24 20:15 | -35.63602 | -62.32938 | 19997 ft | 323 kts | 246° |
| 2026-04-24 20:15 | -35.64637 | -62.35393 | 19995 ft | 323 kts | 246° |
| 2026-04-24 20:15 | -35.65670 | -62.37844 | 19991 ft | 323 kts | 246° |
| 2026-04-24 20:15 | -35.66701 | -62.40293 | 19993 ft | 323 kts | 246° |
| 2026-04-24 20:16 | -35.67735 | -62.42751 | 19997 ft | 323 kts | 246° |
| 2026-04-24 20:16 | -35.68766 | -62.45205 | 20000 ft | 323 kts | 246° |
| 2026-04-24 20:16 | -35.69794 | -62.47654 | 20000 ft | 323 kts | 246° |
| 2026-04-24 20:16 | -35.70809 | -62.50071 | 20004 ft | 323 kts | 246° |
| 2026-04-24 20:17 | -35.71838 | -62.52524 | 20001 ft | 322 kts | 246° |
| 2026-04-24 20:17 | -35.73891 | -62.57426 | 20006 ft | 322 kts | 246° |
| 2026-04-24 20:17 | -35.74916 | -62.59877 | 20002 ft | 322 kts | 246° |
| 2026-04-24 20:18 | -35.75604 | -62.61521 | 20001 ft | 322 kts | 246° |
| 2026-04-24 20:18 | -35.76964 | -62.64775 | 20004 ft | 322 kts | 246° |
| 2026-04-24 20:18 | -35.77985 | -62.67220 | 20002 ft | 322 kts | 247° |
| 2026-04-24 20:18 | -35.79007 | -62.69672 | 19997 ft | 323 kts | 247° |
| 2026-04-24 20:19 | -35.80032 | -62.72129 | 19996 ft | 323 kts | 247° |
| 2026-04-24 20:19 | -35.81056 | -62.74587 | 19997 ft | 323 kts | 247° |
| 2026-04-24 20:19 | -35.82080 | -62.77048 | 19999 ft | 323 kts | 247° |
| 2026-04-24 20:19 | -35.83107 | -62.79516 | 19997 ft | 323 kts | 247° |
| 2026-04-24 20:20 | -35.84130 | -62.81978 | 19998 ft | 323 kts | 247° |
| 2026-04-24 20:20 | -35.85149 | -62.84432 | 19998 ft | 323 kts | 247° |
| 2026-04-24 20:20 | -35.86170 | -62.86892 | 19996 ft | 323 kts | 247° |
| 2026-04-24 20:20 | -35.87186 | -62.89341 | 20001 ft | 323 kts | 247° |
| 2026-04-24 20:21 | -35.88202 | -62.91791 | 20000 ft | 323 kts | 247° |
| 2026-04-24 20:21 | -35.89220 | -62.94251 | 20003 ft | 322 kts | 247° |
| 2026-04-24 20:21 | -35.90241 | -62.96718 | 20005 ft | 322 kts | 247° |
| 2026-04-24 20:21 | -35.91260 | -62.99184 | 20011 ft | 322 kts | 247° |
| 2026-04-24 20:22 | -35.92275 | -63.01640 | 20014 ft | 322 kts | 247° |
| 2026-04-24 20:22 | -35.93291 | -63.04099 | 20015 ft | 322 kts | 247° |
| 2026-04-24 20:22 | -35.94304 | -63.06554 | 20011 ft | 321 kts | 247° |
| 2026-04-24 20:22 | -35.95314 | -63.09005 | 20011 ft | 321 kts | 247° |
| 2026-04-24 20:23 | -35.96313 | -63.11431 | 20007 ft | 321 kts | 247° |
| 2026-04-24 20:23 | -35.97336 | -63.13916 | 20010 ft | 321 kts | 247° |
| 2026-04-24 20:23 | -35.98334 | -63.16342 | 20010 ft | 321 kts | 247° |
| 2026-04-24 20:23 | -35.99343 | -63.18796 | 20008 ft | 321 kts | 247° |
| 2026-04-24 20:24 | -36.00024 | -63.20456 | 20009 ft | 321 kts | 247° |
| 2026-04-24 20:24 | -36.01368 | -63.23730 | 20010 ft | 321 kts | 247° |
| 2026-04-24 20:24 | -36.02376 | -63.26188 | 20010 ft | 320 kts | 247° |
| 2026-04-24 20:24 | -36.03383 | -63.28645 | 20010 ft | 320 kts | 247° |
| 2026-04-24 20:25 | -36.04375 | -63.31068 | 20005 ft | 320 kts | 247° |
| 2026-04-24 20:25 | -36.05382 | -63.33528 | 19959 ft | 316 kts | 247° |
| 2026-04-24 20:25 | -36.06368 | -63.35927 | 19655 ft | 311 kts | 247° |
| 2026-04-24 20:25 | -36.07330 | -63.38273 | 19274 ft | 308 kts | 247° |
| 2026-04-24 20:26 | -36.08293 | -63.40625 | 18869 ft | 306 kts | 247° |
| 2026-04-24 20:26 | -36.09253 | -63.42973 | 18462 ft | 305 kts | 247° |
| 2026-04-24 20:26 | -36.10197 | -63.45289 | 18054 ft | 304 kts | 247° |
| 2026-04-24 20:26 | -36.11149 | -63.47623 | 17641 ft | 302 kts | 247° |
| 2026-04-24 20:27 | -36.12094 | -63.49944 | 17233 ft | 301 kts | 247° |
| 2026-04-24 20:27 | -36.13031 | -63.52247 | 16832 ft | 300 kts | 247° |
| 2026-04-24 20:27 | -36.13964 | -63.54540 | 16431 ft | 298 kts | 247° |
| 2026-04-24 20:27 | -36.14891 | -63.56824 | 16032 ft | 297 kts | 246° |
| 2026-04-24 20:28 | -36.15804 | -63.59072 | 15641 ft | 296 kts | 246° |
| 2026-04-24 20:28 | -36.16725 | -63.61343 | 15245 ft | 294 kts | 246° |
| 2026-04-24 20:28 | -36.17641 | -63.63603 | 14851 ft | 293 kts | 246° |
| 2026-04-24 20:28 | -36.18553 | -63.65854 | 14464 ft | 292 kts | 247° |
| 2026-04-24 20:29 | -36.19151 | -63.67331 | 14197 ft | 292 kts | 247° |
| 2026-04-24 20:29 | -36.20359 | -63.70317 | 13680 ft | 291 kts | 246° |
| 2026-04-24 20:29 | -36.21263 | -63.72555 | 13290 ft | 290 kts | 246° |
| 2026-04-24 20:29 | -36.22167 | -63.74793 | 12906 ft | 290 kts | 246° |
| 2026-04-24 20:30 | -36.23067 | -63.77023 | 12519 ft | 289 kts | 246° |
| 2026-04-24 20:30 | -36.23965 | -63.79250 | 12131 ft | 289 kts | 246° |
| 2026-04-24 20:30 | -36.24859 | -63.81466 | 11746 ft | 288 kts | 246° |
| 2026-04-24 20:30 | -36.25751 | -63.83682 | 11357 ft | 288 kts | 246° |
| 2026-04-24 20:31 | -36.26630 | -63.85865 | 10976 ft | 287 kts | 245° |
| 2026-04-24 20:31 | -36.27519 | -63.88076 | 10590 ft | 285 kts | 245° |
| 2026-04-24 20:31 | -36.28394 | -63.90247 | 10212 ft | 280 kts | 245° |
| 2026-04-24 20:31 | -36.29250 | -63.92370 | 9835 ft | 269 kts | 245° |
| 2026-04-24 20:32 | -36.30071 | -63.94399 | 9479 ft | 257 kts | 245° |
| 2026-04-24 20:32 | -36.30848 | -63.96325 | 9143 ft | 246 kts | 245° |
| 2026-04-24 20:32 | -36.31593 | -63.98172 | 8824 ft | 235 kts | 245° |
| 2026-04-24 20:32 | -36.32307 | -63.99947 | 8524 ft | 225 kts | 245° |
| 2026-04-24 20:33 | -36.32993 | -64.01651 | 8225 ft | 214 kts | 245° |
| 2026-04-24 20:33 | -36.33633 | -64.03244 | 7943 ft | 203 kts | 245° |
| 2026-04-24 20:33 | -36.34246 | -64.04767 | 7671 ft | 191 kts | 245° |
| 2026-04-24 20:33 | -36.34819 | -64.06194 | 7417 ft | 176 kts | 245° |
| 2026-04-24 20:34 | -36.35342 | -64.07491 | 7182 ft | 159 kts | 245° |
| 2026-04-24 20:34 | -36.35807 | -64.08644 | 6930 ft | 142 kts | 245° |
| 2026-04-24 20:34 | -36.36237 | -64.09715 | 6457 ft | 139 kts | 246° |
| 2026-04-24 20:34 | -36.36667 | -64.10795 | 5804 ft | 145 kts | 246° |
| 2026-04-24 20:35 | -36.37107 | -64.11900 | 5241 ft | 144 kts | 245° |
| 2026-04-24 20:35 | -36.37545 | -64.13000 | 4693 ft | 144 kts | 244° |
| 2026-04-24 20:35 | -36.37986 | -64.14106 | 4135 ft | 145 kts | 244° |
| 2026-04-24 20:35 | -36.38421 | -64.15224 | 3584 ft | 145 kts | 249° |
| 2026-04-24 20:36 | -36.38453 | -64.16466 | 2907 ft | 153 kts | 287° |
| 2026-04-24 20:36 | -36.38108 | -64.17618 | 2611 ft | 134 kts | 289° |
| 2026-04-24 20:36 | -36.37788 | -64.18732 | 2087 ft | 145 kts | 286° |
| 2026-04-24 20:36 | -36.37489 | -64.19921 | 1940 ft | 141 kts | 284° |
| 2026-04-24 20:37 | -36.37268 | -64.21068 | 2179 ft | 135 kts | 269° |
| 2026-04-24 20:37 | -36.37697 | -64.22067 | 2141 ft | 141 kts | 207° |
| 2026-04-24 20:37 | -36.38597 | -64.22457 | 2385 ft | 136 kts | 194° |
| 2026-04-24 20:37 | -36.39519 | -64.22787 | 2578 ft | 141 kts | 196° |
| 2026-04-24 20:38 | -36.40482 | -64.23151 | 2701 ft | 151 kts | 196° |
| 2026-04-24 20:38 | -36.41473 | -64.23495 | 2732 ft | 141 kts | 191° |
| 2026-04-24 20:38 | -36.42406 | -64.23664 | 2708 ft | 132 kts | 186° |
| 2026-04-24 20:38 | -36.43335 | -64.23823 | 2505 ft | 137 kts | 188° |
| 2026-04-24 20:39 | -36.44278 | -64.24042 | 2576 ft | 133 kts | 191° |
| 2026-04-24 20:39 | -36.45192 | -64.24271 | 2684 ft | 132 kts | 191° |
| 2026-04-24 20:39 | -36.46060 | -64.24480 | 2668 ft | 130 kts | 190° |
| 2026-04-24 20:39 | -36.46959 | -64.24699 | 2716 ft | 128 kts | 190° |
| 2026-04-24 20:40 | -36.47842 | -64.24913 | 2579 ft | 129 kts | 189° |
| 2026-04-24 20:40 | -36.48726 | -64.25123 | 2460 ft | 130 kts | 189° |
| 2026-04-24 20:40 | -36.49628 | -64.25340 | 2286 ft | 132 kts | 189° |
| 2026-04-24 20:40 | -36.50510 | -64.25551 | 2086 ft | 128 kts | 189° |
| 2026-04-24 20:41 | -36.51365 | -64.25753 | 1873 ft | 121 kts | 189° |
| 2026-04-24 20:41 | -36.52184 | -64.25954 | 1670 ft | 119 kts | 189° |
| 2026-04-24 20:41 | -36.53002 | -64.26158 | 1477 ft | 119 kts | 189° |
| 2026-04-24 20:41 | -36.53815 | -64.26356 | 1371 ft | 117 kts | 188° |
| 2026-04-24 20:42 | -36.54616 | -64.26531 | 1246 ft | 118 kts | 188° |
| 2026-04-24 20:42 | -36.55426 | -64.26727 | 1123 ft | 118 kts | 190° |
| 2026-04-24 20:42 | -36.56242 | -64.26926 | 995 ft | 119 kts | 189° |
| 2026-04-24 20:42 | -36.57060 | -64.27129 | 828 ft | 121 kts | 190° |
| 2026-04-24 20:43 | -36.57893 | -64.27335 | 641 ft | 120 kts | 187° |
| 2026-04-24 20:43 | -36.58630 | -64.27511 | 626 ft | 98 kts | 189° |
| 2026-04-24 20:43 | -36.59175 | -64.27640 | 626 ft | 61 kts | 192° |
| 2026-04-24 20:43 | -36.59504 | -64.27727 | 624 ft | 25 kts | 193° |
| 2026-04-24 20:44 | -36.59650 | -64.27773 | 625 ft | 17 kts | 196° |
| 2026-04-24 20:44 | -36.59710 | -64.27781 | 625 ft | 0 kts | 122° |
| 2026-04-24 20:44 | -36.59707 | -64.27772 | 625 ft | 2 kts | 36° |
| 2026-04-24 20:44 | -36.59682 | -64.27765 | 625 ft | 4 kts | 10° |
| 2026-04-24 20:45 | -36.59644 | -64.27756 | 625 ft | 6 kts | 11° |
| 2026-04-24 20:45 | -36.59598 | -64.27747 | 624 ft | 7 kts | 8° |
| 2026-04-24 20:45 | -36.59546 | -64.27737 | 624 ft | 8 kts | 9° |
| 2026-04-24 20:45 | -36.59488 | -64.27724 | 624 ft | 8 kts | 10° |
| 2026-04-24 20:46 | -36.59425 | -64.27708 | 624 ft | 8 kts | 12° |
| 2026-04-24 20:46 | -36.59368 | -64.27692 | 625 ft | 7 kts | 12° |
| 2026-04-24 20:46 | -36.59318 | -64.27677 | 626 ft | 7 kts | 11° |
| 2026-04-24 20:46 | -36.59265 | -64.27668 | 626 ft | 8 kts | 7° |
| 2026-04-24 20:47 | -36.59208 | -64.27658 | 626 ft | 8 kts | 8° |
| 2026-04-24 20:47 | -36.59146 | -64.27665 | 626 ft | 8 kts | 320° |
| 2026-04-24 20:47 | -36.59150 | -64.27730 | 627 ft | 6 kts | 248° |
| 2026-04-24 20:47 | -36.59164 | -64.27774 | 628 ft | 4 kts | 248° |
| 2026-04-24 20:48 | -36.59174 | -64.27805 | 629 ft | 5 kts | 248° |
| 2026-04-24 20:48 | -36.59188 | -64.27854 | 629 ft | 6 kts | 258° |
| 2026-04-24 20:48 | -36.59199 | -64.27898 | 629 ft | 0 kts | 226° |